Time;durP1;ratioP1;P1;durP2;ratioP2;P2;SDS_P1;SDS_P2;PMS_P1;PMS_P2;Temp;Humidity;BMP_temperature;BMP_pressure;BME280_temperature;BME280_humidity;BME280_pressure;Samples;Min_cycle;Max_cycle;Signal;HPM_P1;HPM_P2
2022/10/11 00:00:31;;;;;;;4.70;1.70;;;7.00;99.90;;;;;;5071795;28;20193;-76
2022/10/11 00:02:58;;;;;;;2.42;1.40;;;6.90;99.90;;;;;;5053115;28;20453;-74
2022/10/11 00:05:24;;;;;;;8.75;2.10;;;6.90;99.90;;;;;;5054037;28;20087;-73
2022/10/11 00:07:49;;;;;;;;;;;6.90;99.90;;;;;;5086870;28;20040;-74
2022/10/11 00:10:15;;;;;;;11.10;2.03;;;6.80;99.90;;;;;;5061597;28;19924;-74
2022/10/11 00:12:41;;;;;;;7.38;2.17;;;6.90;99.90;;;;;;5051610;28;20049;-74
2022/10/11 00:15:08;;;;;;;7.28;2.22;;;6.80;99.90;;;;;;5071801;28;20124;-74
2022/10/11 00:17:34;;;;;;;10.50;3.15;;;6.90;99.90;;;;;;5052141;28;20044;-76
2022/10/11 00:19:59;;;;;;;3.55;1.70;;;6.90;99.90;;;;;;5071430;28;20051;-73
2022/10/11 00:22:25;;;;;;;4.80;1.42;;;6.90;99.90;;;;;;5059775;28;20037;-74
2022/10/11 00:24:51;;;;;;;8.35;1.77;;;6.80;99.90;;;;;;5032720;28;20481;-74
2022/10/11 00:27:18;;;;;;;4.50;1.88;;;6.70;99.90;;;;;;5051520;28;20092;-73
2022/10/11 00:29:44;;;;;;;2.67;1.30;;;6.60;99.90;;;;;;5050879;28;20037;-73
2022/10/11 00:32:09;;;;;;;8.32;1.88;;;6.50;99.90;;;;;;5050462;28;20087;-75
2022/10/11 00:34:35;;;;;;;6.90;1.70;;;6.50;99.90;;;;;;5033391;28;20063;-76
2022/10/11 00:37:02;;;;;;;4.85;1.73;;;6.40;99.90;;;;;;5066799;28;20068;-74
2022/10/11 00:39:28;;;;;;;8.13;2.63;;;6.40;99.90;;;;;;5036186;28;20054;-73
2022/10/11 00:41:53;;;;;;;6.05;2.17;;;6.50;99.90;;;;;;5036061;28;20213;-73
2022/10/11 00:44:23;;;;;;;10.52;2.10;;;6.50;99.90;;;;;;5070309;28;20056;-74
2022/10/11 00:46:51;;;;;;;14.55;3.22;;;6.60;99.90;;;;;;5052107;28;20525;-73
2022/10/11 00:49:49;;;;;;;9.48;2.60;;;6.60;99.90;;;;;;5040176;28;20489;-74
2022/10/11 00:52:27;;;;;;;9.23;2.10;;;6.60;99.90;;;;;;5033556;28;20064;-74
2022/10/11 00:54:55;;;;;;;7.05;1.80;;;6.60;99.90;;;;;;5050940;28;20076;-74
2022/10/11 00:57:26;;;;;;;2.85;1.40;;;6.60;99.90;;;;;;5051279;28;20045;-74
2022/10/11 00:59:54;;;;;;;2.92;1.20;;;6.60;99.90;;;;;;5050358;28;20169;-73
2022/10/11 01:02:21;;;;;;;4.68;1.70;;;6.60;99.90;;;;;;5049736;28;20640;-73
2022/10/11 01:04:48;;;;;;;4.70;1.85;;;6.60;99.90;;;;;;5032216;28;20041;-74
2022/10/11 01:07:14;;;;;;;6.95;1.80;;;6.50;99.90;;;;;;5049846;28;20037;-73
2022/10/11 01:09:40;;;;;;;2.50;1.40;;;6.50;99.90;;;;;;5049137;28;20041;-73
2022/10/11 01:12:20;;;;;;;4.50;1.40;;;6.40;99.90;;;;;;5050464;28;20045;-74
2022/10/11 01:15:22;;;;;;;5.60;1.25;;;6.40;99.90;;;;;;5065092;28;20523;-74
2022/10/11 01:18:06;;;;;;;8.20;2.03;;;6.30;99.90;;;;;;5047709;28;20052;-73
2022/10/11 01:20:51;;;;;;;6.18;1.63;;;6.30;99.90;;;;;;5052712;28;20074;-73
2022/10/11 01:23:29;;;;;;;6.20;1.77;;;6.20;99.90;;;;;;5070065;28;20385;-74
2022/10/11 01:25:58;;;;;;;4.93;1.60;;;6.20;99.90;;;;;;5069505;28;20123;-73
2022/10/11 01:28:45;;;;;;;5.30;1.73;;;6.20;99.90;;;;;;5070353;28;20381;-73
2022/10/11 01:31:22;;;;;;;5.05;2.03;;;6.20;99.90;;;;;;5031739;28;20457;-74
2022/10/11 01:33:58;;;;;;;4.60;1.45;;;6.20;99.90;;;;;;5031781;28;20049;-74
2022/10/11 01:36:33;;;;;;;3.83;1.60;;;6.20;99.90;;;;;;5062821;28;20051;-74
2022/10/11 01:39:08;;;;;;;2.97;1.08;;;6.10;99.90;;;;;;5050563;28;20128;-73
2022/10/11 01:41:38;;;;;;;4.70;1.40;;;6.00;99.90;;;;;;5049936;28;20056;-73
2022/10/11 01:44:05;;;;;;;9.27;2.03;;;6.00;99.90;;;;;;5049247;28;20056;-74
2022/10/11 01:46:32;;;;;;;3.03;1.10;;;6.00;99.90;;;;;;5052812;28;20102;-73
2022/10/11 01:49:00;;;;;;;2.20;1.20;;;6.00;99.90;;;;;;5084528;28;20048;-73
2022/10/11 01:51:45;;;;;;;3.80;1.65;;;6.10;99.90;;;;;;5069941;28;20048;-73
2022/10/11 01:54:29;;;;;;;6.32;1.50;;;6.00;99.90;;;;;;5069009;28;20370;-74
2022/10/11 01:57:22;;;;;;;9.90;1.90;;;6.00;99.90;;;;;;5051409;28;20049;-74
2022/10/11 01:59:51;;;;;;;2.90;1.10;;;6.00;99.90;;;;;;5061346;28;20040;-73
2022/10/11 02:02:22;;;;;;;2.92;1.30;;;6.00;99.90;;;;;;5049866;28;20051;-74
2022/10/11 02:05:23;;;;;;;6.72;2.03;;;6.00;99.90;;;;;;5051076;28;20047;-74
2022/10/11 02:07:56;;;;;;;13.13;1.92;;;5.90;99.90;;;;;;5045084;28;20130;-74
2022/10/11 02:10:36;;;;;;;6.07;1.67;;;6.00;99.90;;;;;;5051570;28;20052;-74
2022/10/11 02:13:22;;;;;;;7.43;1.90;;;5.90;99.90;;;;;;5068927;28;20040;-74
2022/10/11 02:15:49;;;;;;;35.20;2.80;;;5.90;99.90;;;;;;5062915;28;20055;-73
2022/10/11 02:18:20;;;;;;;22.30;2.60;;;5.90;99.90;;;;;;5071457;28;20037;-74
2022/10/11 02:20:49;;;;;;;17.90;1.55;;;5.80;99.90;;;;;;5031253;28;20052;-74
2022/10/11 02:23:19;;;;;;;6.75;1.30;;;5.80;99.90;;;;;;5045346;28;20428;-74
2022/10/11 02:25:46;;;;;;;23.27;2.70;;;5.70;99.90;;;;;;5036811;28;20044;-73
2022/10/11 02:28:16;;;;;;;41.30;3.45;;;5.70;99.90;;;;;;5048270;28;20048;-73
2022/10/11 02:30:46;;;;;;;9.18;1.65;;;5.60;99.90;;;;;;5047929;28;20041;-76
2022/10/11 02:33:14;;;;;;;30.17;2.08;;;5.60;99.90;;;;;;5048536;28;20052;-73
2022/10/11 02:35:46;;;;;;;16.73;2.08;;;5.60;99.90;;;;;;5047653;28;20128;-75
2022/10/11 02:38:22;;;;;;;8.93;2.17;;;5.60;99.90;;;;;;5050921;28;20055;-73
2022/10/11 02:40:59;;;;;;;5.07;1.70;;;5.70;99.90;;;;;;5047302;28;20070;-73
2022/10/11 02:43:40;;;;;;;4.97;1.67;;;5.70;99.90;;;;;;5069237;28;20079;-74
2022/10/11 02:46:07;;;;;;;4.47;1.42;;;5.70;99.90;;;;;;5036065;28;20102;-75
2022/10/11 02:48:34;;;;;;;4.55;1.73;;;5.80;99.90;;;;;;5058066;28;20453;-73
2022/10/11 02:51:02;;;;;;;5.65;1.50;;;5.80;99.90;;;;;;5050340;28;20067;-73
2022/10/11 02:53:28;;;;;;;5.78;1.27;;;5.80;99.90;;;;;;5050642;28;20045;-74
2022/10/11 02:55:54;;;;;;;6.55;1.90;;;5.70;99.90;;;;;;5050169;28;20045;-73
2022/10/11 02:58:20;;;;;;;;;;;5.70;99.90;;;;;;5049180;28;20095;-73
2022/10/11 03:00:46;;;;;;;7.47;1.90;;;5.70;99.90;;;;;;5048446;28;19917;-76
2022/10/11 03:03:11;;;;;;;6.30;2.35;;;5.80;99.90;;;;;;5047743;28;20051;-73
2022/10/11 03:05:40;;;;;;;8.68;2.03;;;5.80;99.90;;;;;;5050203;28;20040;-74
2022/10/11 03:08:10;;;;;;;9.15;2.33;;;5.80;99.90;;;;;;5068008;28;20084;-73
2022/10/11 03:10:37;;;;;;;2.63;1.60;;;5.80;99.90;;;;;;5036868;28;20049;-73
2022/10/11 03:13:02;;;;;;;4.13;1.58;;;5.80;99.90;;;;;;5048063;28;20049;-74
2022/10/11 03:15:29;;;;;;;5.13;1.75;;;5.80;99.90;;;;;;5051146;28;20205;-74
2022/10/11 03:17:54;;;;;;;4.47;2.38;;;5.80;99.90;;;;;;5082692;28;20076;-74
2022/10/11 03:20:20;;;;;;;6.72;1.95;;;5.80;99.90;;;;;;5068565;28;20087;-74
2022/10/11 03:22:46;;;;;;;9.57;2.13;;;5.80;99.90;;;;;;5068129;28;20041;-75
2022/10/11 03:25:11;;;;;;;5.40;1.52;;;5.80;99.90;;;;;;5041569;28;20037;-74
2022/10/11 03:27:37;;;;;;;10.00;1.60;;;5.70;99.90;;;;;;5048704;28;20045;-74
2022/10/11 03:30:04;;;;;;;9.18;1.42;;;5.70;99.90;;;;;;5048090;28;20045;-74
2022/10/11 03:32:30;;;;;;;3.17;1.48;;;5.60;99.90;;;;;;5050458;28;20107;-74
2022/10/11 03:34:55;;;;;;;4.63;1.40;;;5.60;99.90;;;;;;5051657;28;20037;-73
2022/10/11 03:37:21;;;;;;;3.28;1.45;;;5.50;99.90;;;;;;5067939;28;20116;-73
2022/10/11 03:39:47;;;;;;;3.13;1.15;;;5.50;99.90;;;;;;5065371;28;20037;-75
2022/10/11 03:42:13;;;;;;;3.22;1.50;;;5.50;99.90;;;;;;5051044;28;20052;-75
2022/10/11 03:44:40;;;;;;;5.40;1.20;;;5.50;99.90;;;;;;5034689;28;20051;-73
2022/10/11 03:47:06;;;;;;;3.40;1.40;;;5.50;99.90;;;;;;5063653;28;20292;-73
2022/10/11 03:49:32;;;;;;;2.08;1.33;;;5.40;99.90;;;;;;5071474;28;20547;-73
2022/10/11 03:51:58;;;;;;;2.25;1.30;;;5.40;99.90;;;;;;5070337;28;20040;-74
2022/10/11 03:54:24;;;;;;;2.67;1.30;;;5.40;99.90;;;;;;5071152;28;20064;-74
2022/10/11 03:56:50;;;;;;;2.30;1.38;;;5.40;99.90;;;;;;5071485;28;20083;-75
2022/10/11 03:59:15;;;;;;;50.10;2.75;;;5.30;99.90;;;;;;5068281;28;20534;-73
2022/10/11 04:01:41;;;;;;;79.43;5.60;;;5.50;99.90;;;;;;5071137;28;20086;-74
2022/10/11 04:04:07;;;;;;;7.18;1.52;;;5.30;99.90;;;;;;5071142;28;20044;-74
2022/10/11 04:06:32;;;;;;;2.97;2.05;;;5.30;99.90;;;;;;5037893;28;20055;-74
2022/10/11 04:08:58;;;;;;;3.97;1.33;;;5.30;99.90;;;;;;5049917;28;20170;-73
2022/10/11 04:11:24;;;;;;;6.18;1.40;;;5.20;99.90;;;;;;5070728;28;20093;-73
2022/10/11 04:13:50;;;;;;;6.45;1.60;;;5.30;99.90;;;;;;5053905;28;20480;-74
2022/10/11 04:16:16;;;;;;;2.83;1.40;;;5.30;99.90;;;;;;5070732;28;20040;-73
2022/10/11 04:18:42;;;;;;;11.55;1.45;;;5.30;99.90;;;;;;5053579;28;20045;-72
2022/10/11 04:21:07;;;;;;;56.70;3.70;;;5.20;99.90;;;;;;5070632;28;20052;-73
2022/10/11 04:23:33;;;;;;;7.43;2.05;;;5.30;99.90;;;;;;5071057;28;20102;-74
2022/10/11 04:25:59;;;;;;;3.85;1.80;;;5.20;99.90;;;;;;5048868;28;20044;-73
2022/10/11 04:28:24;;;;;;;14.00;1.98;;;5.10;99.90;;;;;;5053527;28;20047;-74
2022/10/11 04:30:51;;;;;;;21.67;2.75;;;5.10;99.90;;;;;;5071032;28;20044;-75
2022/10/11 04:33:17;;;;;;;44.92;3.35;;;5.20;99.90;;;;;;5049565;28;20044;-73
2022/10/11 04:35:42;;;;;;;20.52;2.85;;;5.10;99.90;;;;;;5051264;28;20135;-73
2022/10/11 04:38:08;;;;;;;7.10;2.10;;;5.10;99.90;;;;;;5050437;28;20084;-73
2022/10/11 04:40:34;;;;;;;21.02;2.28;;;5.20;99.90;;;;;;5078267;28;20048;-73
2022/10/11 04:43:00;;;;;;;5.63;2.10;;;5.50;99.90;;;;;;5070119;28;20036;-73
2022/10/11 04:45:25;;;;;;;47.15;4.38;;;5.30;99.90;;;;;;5053441;28;20045;-73
2022/10/11 04:47:51;;;;;;;10.18;2.28;;;5.30;99.90;;;;;;5062537;28;20362;-74
2022/10/11 04:50:17;;;;;;;31.23;3.55;;;5.30;99.90;;;;;;5054538;28;20088;-73
2022/10/11 04:52:43;;;;;;;;;;;5.30;99.90;;;;;;5071017;28;20430;-73
2022/10/11 04:55:10;;;;;;;9.45;2.22;;;5.40;99.90;;;;;;5063074;28;19924;-73
2022/10/11 04:57:35;;;;;;;13.48;2.60;;;5.40;99.90;;;;;;5050719;28;20478;-72
2022/10/11 05:00:02;;;;;;;12.07;2.17;;;5.50;99.90;;;;;;5065509;28;20042;-73
2022/10/11 05:02:28;;;;;;;10.38;2.55;;;5.40;99.90;;;;;;5058266;28;20048;-75
2022/10/11 05:04:53;;;;;;;8.02;2.30;;;5.50;99.90;;;;;;5035554;28;20377;-77
2022/10/11 05:07:19;;;;;;;10.60;2.50;;;5.60;99.90;;;;;;5087153;28;20051;-74
2022/10/11 05:09:45;;;;;;;7.30;2.50;;;5.50;99.90;;;;;;5065794;28;20040;-72
2022/10/11 05:12:10;;;;;;;4.88;1.77;;;5.50;99.90;;;;;;5051778;28;20056;-72
2022/10/11 05:14:36;;;;;;;47.63;3.35;;;5.50;99.90;;;;;;5066194;28;20048;-72
2022/10/11 05:17:02;;;;;;;8.15;2.97;;;5.50;99.90;;;;;;5048911;28;20056;-73
2022/10/11 05:19:28;;;;;;;4.00;2.08;;;5.50;99.90;;;;;;5049050;28;20491;-72
2022/10/11 05:21:54;;;;;;;4.93;2.25;;;5.50;99.90;;;;;;5049317;28;20048;-74
2022/10/11 05:24:19;;;;;;;;;;;5.60;99.90;;;;;;5069178;28;20091;-73
2022/10/11 05:26:45;;;;;;;11.68;2.50;;;5.50;99.90;;;;;;5069177;28;20447;-73
2022/10/11 05:29:11;;;;;;;19.67;3.75;;;5.60;99.90;;;;;;5069723;28;20037;-73
2022/10/11 05:31:36;;;;;;;15.77;2.85;;;5.50;99.90;;;;;;5050676;28;20060;-72
2022/10/11 05:34:02;;;;;;;54.10;4.05;;;5.60;99.90;;;;;;5048271;28;20088;-73
2022/10/11 05:36:28;;;;;;;49.13;3.15;;;5.50;99.90;;;;;;5050369;28;20067;-73
2022/10/11 05:38:53;;;;;;;11.02;2.67;;;5.60;99.90;;;;;;5048088;28;20128;-74
2022/10/11 05:41:19;;;;;;;8.63;2.92;;;5.60;99.90;;;;;;5031684;28;20048;-72
2022/10/11 05:43:45;;;;;;;15.32;2.92;;;5.60;99.90;;;;;;5050282;28;20049;-73
2022/10/11 05:46:11;;;;;;;21.70;2.78;;;5.60;99.90;;;;;;5039843;28;20048;-72
2022/10/11 05:48:37;;;;;;;8.57;2.53;;;5.60;99.90;;;;;;5051857;28;20131;-72
2022/10/11 05:51:06;;;;;;;55.05;4.30;;;5.60;99.90;;;;;;5034776;28;20139;-72
2022/10/11 05:53:32;;;;;;;31.65;3.55;;;5.60;99.90;;;;;;5069110;28;20094;-72
2022/10/11 05:55:58;;;;;;;;;;;5.60;99.90;;;;;;5065770;28;20044;-74
2022/10/11 05:58:24;;;;;;;20.63;2.53;;;5.60;99.90;;;;;;5051445;28;19924;-72
2022/10/11 06:00:50;;;;;;;11.02;2.50;;;5.60;99.90;;;;;;5035551;28;20097;-72
2022/10/11 06:03:16;;;;;;;11.80;2.72;;;5.70;99.90;;;;;;5044071;28;20128;-72
2022/10/11 06:05:42;;;;;;;22.98;4.15;;;5.70;99.90;;;;;;5049557;28;20124;-72
2022/10/11 06:08:09;;;;;;;14.30;3.10;;;5.70;99.90;;;;;;5048574;28;20483;-72
2022/10/11 06:10:37;;;;;;;8.20;2.30;;;5.80;99.90;;;;;;5064205;28;20048;-73
2022/10/11 06:13:03;;;;;;;7.05;2.67;;;5.70;99.90;;;;;;5051021;28;20590;-72
2022/10/11 06:15:29;;;;;;;6.68;2.50;;;5.70;99.90;;;;;;5067198;28;20129;-72
2022/10/11 06:17:55;;;;;;;6.25;2.30;;;5.80;99.90;;;;;;5068469;28;20090;-73
2022/10/11 06:20:20;;;;;;;19.77;2.42;;;5.80;99.90;;;;;;5067243;28;20040;-71
2022/10/11 06:22:46;;;;;;;69.35;5.25;;;5.70;99.90;;;;;;5064936;28;20056;-73
2022/10/11 06:25:12;;;;;;;14.27;2.75;;;5.70;99.90;;;;;;5068691;28;20048;-72
2022/10/11 06:27:37;;;;;;;6.43;2.15;;;5.70;99.90;;;;;;5035211;28;20052;-72
2022/10/11 06:30:04;;;;;;;5.38;2.00;;;5.70;99.90;;;;;;5050785;28;20075;-74
2022/10/11 06:32:30;;;;;;;6.00;2.05;;;5.70;99.90;;;;;;5068424;28;20041;-72
2022/10/11 06:34:55;;;;;;;4.05;1.88;;;5.70;99.90;;;;;;5050847;28;20043;-72
2022/10/11 06:37:21;;;;;;;6.03;1.95;;;5.70;99.90;;;;;;5048498;28;20052;-73
2022/10/11 06:39:47;;;;;;;4.22;2.30;;;5.70;99.90;;;;;;5046298;28;20045;-73
2022/10/11 06:42:12;;;;;;;5.53;2.25;;;5.80;99.90;;;;;;5050482;28;20247;-74
2022/10/11 06:44:38;;;;;;;8.25;2.10;;;5.70;99.90;;;;;;5068977;28;20048;-73
2022/10/11 06:47:08;;;;;;;5.93;2.25;;;5.80;99.90;;;;;;5049767;28;20051;-74
2022/10/11 06:49:34;;;;;;;7.80;3.13;;;5.80;99.90;;;;;;5049804;28;20131;-74
2022/10/11 06:52:00;;;;;;;5.95;2.28;;;5.80;99.90;;;;;;5050723;28;20040;-75
2022/10/11 06:54:25;;;;;;;8.25;2.70;;;5.80;99.90;;;;;;5067729;28;20047;-72
2022/10/11 06:56:51;;;;;;;9.80;2.55;;;5.90;99.90;;;;;;5068914;28;20048;-76
2022/10/11 06:59:17;;;;;;;13.13;2.72;;;6.00;99.90;;;;;;5037725;28;20054;-72
2022/10/11 07:01:42;;;;;;;6.85;2.80;;;6.00;99.90;;;;;;5053568;28;20321;-73
2022/10/11 07:04:08;;;;;;;14.20;2.00;;;6.10;99.90;;;;;;5067646;28;20041;-72
2022/10/11 07:06:39;;;;;;;26.75;2.65;;;6.10;99.90;;;;;;5054960;28;20097;-72
2022/10/11 07:09:05;;;;;;;5.78;1.95;;;6.10;99.90;;;;;;5071435;28;20033;-76
2022/10/11 07:11:30;;;;;;;22.17;2.00;;;6.10;99.90;;;;;;5054930;28;20047;-72
2022/10/11 07:13:59;;;;;;;17.13;1.75;;;6.10;99.90;;;;;;5073058;28;20052;-72
2022/10/11 07:16:26;;;;;;;7.70;2.00;;;6.10;99.90;;;;;;5071158;28;20036;-69
2022/10/11 07:18:55;;;;;;;11.98;2.90;;;6.10;99.90;;;;;;5052364;28;20537;-72
2022/10/11 07:21:21;;;;;;;6.78;2.17;;;6.10;99.90;;;;;;5057135;28;20045;-73
2022/10/11 07:23:47;;;;;;;9.80;2.63;;;6.10;99.90;;;;;;5022881;28;20040;-75
2022/10/11 07:26:12;;;;;;;9.57;2.63;;;6.20;99.90;;;;;;5048544;28;20051;-76
2022/10/11 07:28:39;;;;;;;11.60;2.35;;;6.30;99.90;;;;;;5052911;28;20047;-75
2022/10/11 07:31:07;;;;;;;11.63;2.67;;;6.30;99.90;;;;;;5041040;28;20044;-76
2022/10/11 07:33:33;;;;;;;9.80;3.22;;;6.40;99.90;;;;;;5051546;28;20048;-74
2022/10/11 07:35:59;;;;;;;6.70;2.38;;;6.40;99.90;;;;;;5066218;28;20481;-74
2022/10/11 07:38:25;;;;;;;12.40;3.13;;;6.50;99.90;;;;;;5065920;28;20047;-76
2022/10/11 07:40:51;;;;;;;12.00;2.55;;;6.60;99.90;;;;;;5055167;28;20118;-74
2022/10/11 07:43:16;;;;;;;7.05;2.45;;;6.60;99.90;;;;;;5041191;28;20083;-74
2022/10/11 07:45:47;;;;;;;8.73;3.03;;;6.60;99.90;;;;;;5060917;28;20052;-76
2022/10/11 07:48:13;;;;;;;6.85;2.17;;;6.70;99.90;;;;;;5057735;28;20608;-74
2022/10/11 07:50:39;;;;;;;;;;;6.70;99.90;;;;;;5066786;28;20488;-74
2022/10/11 07:53:05;;;;;;;8.52;2.45;;;6.80;99.90;;;;;;5061063;28;19915;-76
2022/10/11 07:55:38;;;;;;;11.48;2.67;;;6.70;99.90;;;;;;5077653;28;20145;-74
2022/10/11 07:58:06;;;;;;;10.30;3.03;;;6.90;99.90;;;;;;5093283;28;20051;-73
2022/10/11 08:00:31;;;;;;;6.60;2.58;;;6.80;99.90;;;;;;5063072;28;20066;-73
2022/10/11 08:02:57;;;;;;;4.22;2.60;;;6.80;99.90;;;;;;5080938;28;20229;-73
2022/10/11 08:05:22;;;;;;;5.68;2.20;;;6.90;99.90;;;;;;5074480;28;20056;-73
2022/10/11 08:07:48;;;;;;;8.30;2.50;;;6.90;99.90;;;;;;5092635;28;20047;-74
2022/10/11 08:10:14;;;;;;;6.13;2.95;;;7.00;99.90;;;;;;5081981;28;20041;-74
2022/10/11 08:12:40;;;;;;;9.50;2.60;;;7.00;99.90;;;;;;5040765;28;20063;-73
2022/10/11 08:15:06;;;;;;;8.52;2.95;;;7.00;99.90;;;;;;5090292;28;20460;-74
2022/10/11 08:17:31;;;;;;;11.25;2.90;;;7.10;99.90;;;;;;5050197;28;20674;-76
2022/10/11 08:19:57;;;;;;;11.63;2.90;;;7.30;99.90;;;;;;5050174;28;20051;-72
2022/10/11 08:22:23;;;;;;;7.40;2.95;;;7.30;99.90;;;;;;5062583;28;20052;-75
2022/10/11 08:24:48;;;;;;;10.68;2.67;;;7.40;99.90;;;;;;5073599;28;20075;-75
2022/10/11 08:27:14;;;;;;;11.70;3.15;;;7.50;99.90;;;;;;5074008;28;20061;-75
2022/10/11 08:29:40;;;;;;;6.63;3.25;;;7.50;99.90;;;;;;5092890;28;20051;-74
2022/10/11 08:32:05;;;;;;;19.42;3.67;;;7.70;99.90;;;;;;5091989;28;20122;-75
2022/10/11 08:34:31;;;;;;;9.40;2.72;;;7.90;99.90;;;;;;5091511;28;20097;-75
2022/10/11 08:36:56;;;;;;;10.32;2.75;;;8.00;99.90;;;;;;5076368;28;20568;-75
2022/10/11 08:39:22;;;;;;;4.57;2.45;;;8.20;99.90;;;;;;5088905;28;20043;-73
2022/10/11 08:42:03;;;;;;;12.10;3.40;;;8.30;99.90;;;;;;5048417;28;20042;-73
2022/10/11 08:45:05;;;;;;;11.43;2.60;;;8.50;99.90;;;;;;5066450;28;20055;-73
2022/10/11 08:47:36;;;;;;;6.47;2.22;;;8.70;99.90;;;;;;5046884;28;20095;-74
2022/10/11 08:50:04;;;;;;;10.73;2.40;;;8.80;99.90;;;;;;5092093;28;20048;-72
2022/10/11 08:52:35;;;;;;;13.32;2.88;;;8.90;99.90;;;;;;5073957;28;20202;-74
2022/10/11 08:55:14;;;;;;;6.63;2.00;;;9.10;99.90;;;;;;5071608;28;20045;-73
2022/10/11 08:57:44;;;;;;;8.88;2.00;;;9.20;99.90;;;;;;5062116;28;20074;-75
2022/10/11 09:00:15;;;;;;;9.85;2.50;;;9.30;99.90;;;;;;5054883;28;20043;-77
2022/10/11 09:03:19;;;;;;;12.85;2.50;;;9.50;99.90;;;;;;5056860;28;20055;-77
2022/10/11 09:06:00;;;;;;;10.68;2.25;;;9.60;99.90;;;;;;5045641;28;20052;-73
2022/10/11 09:08:51;;;;;;;7.63;2.22;;;9.70;99.90;;;;;;5055908;28;20386;-74
2022/10/11 09:11:22;;;;;;;8.95;2.13;;;9.80;99.90;;;;;;5052169;28;20465;-80
2022/10/11 09:13:51;;;;;;;6.18;2.95;;;9.90;99.90;;;;;;5061343;28;20107;-73
2022/10/11 09:16:28;;;;;;;8.07;1.90;;;10.00;99.90;;;;;;5041160;28;20147;-79
2022/10/11 09:19:19;;;;;;;7.75;2.17;;;10.10;99.90;;;;;;5065526;28;20736;-75
2022/10/11 09:22:00;;;;;;;13.02;2.90;;;10.30;99.90;;;;;;5034862;28;20044;-76
2022/10/11 09:24:56;;;;;;;8.02;2.28;;;10.50;99.90;;;;;;5059622;28;20053;-77
2022/10/11 09:27:37;;;;;;;9.88;2.10;;;10.70;99.90;;;;;;5062566;28;20500;-73
2022/10/11 09:30:09;;;;;;;8.23;1.63;;;10.80;99.90;;;;;;5063364;28;20043;-73
2022/10/11 09:32:39;;;;;;;7.20;1.67;;;10.90;99.90;;;;;;5064284;28;20113;-78
2022/10/11 09:35:15;;;;;;;8.48;1.75;;;11.10;99.90;;;;;;5056918;28;20036;-75
2022/10/11 09:37:43;;;;;;;7.40;2.28;;;11.20;99.90;;;;;;5070719;28;20040;-74
2022/10/11 09:40:19;;;;;;;15.02;2.90;;;11.30;99.90;;;;;;5067635;28;20505;-75
2022/10/11 09:42:44;;;;;;;9.02;1.70;;;11.40;99.90;;;;;;5068398;28;20079;-73
2022/10/11 09:45:17;;;;;;;9.20;1.88;;;11.50;99.90;;;;;;5063987;28;20037;-73
2022/10/11 09:47:43;;;;;;;7.40;2.20;;;11.70;99.90;;;;;;5056687;28;20044;-73
2022/10/11 09:50:19;;;;;;;6.25;1.70;;;11.70;99.90;;;;;;5066629;28;20105;-74
2022/10/11 09:52:58;;;;;;;6.38;1.60;;;11.80;99.90;;;;;;5044788;28;20374;-76
2022/10/11 09:55:42;;;;;;;6.10;2.03;;;11.90;99.90;;;;;;5050460;28;20037;-73
2022/10/11 09:58:30;;;;;;;6.05;1.58;;;12.00;99.90;;;;;;5053751;28;20031;-73
2022/10/11 10:00:58;;;;;;;11.82;2.35;;;12.10;99.90;;;;;;5072646;28;20036;-72
2022/10/11 10:03:30;;;;;;;6.18;1.50;;;12.20;99.90;;;;;;5089177;28;20122;-72
2022/10/11 10:06:10;;;;;;;10.25;1.85;;;12.30;99.90;;;;;;5070350;28;20071;-72
2022/10/11 10:08:37;;;;;;;9.77;1.73;;;12.30;99.90;;;;;;5079704;28;20456;-75
2022/10/11 10:11:06;;;;;;;12.45;2.20;;;12.40;99.90;;;;;;5090221;28;20051;-72
2022/10/11 10:13:35;;;;;;;9.35;2.33;;;12.50;99.90;;;;;;5072241;28;20043;-72
2022/10/11 10:16:02;;;;;;;9.10;2.05;;;12.60;99.90;;;;;;5066881;28;20040;-76
2022/10/11 10:18:28;;;;;;;11.55;2.83;;;12.60;99.90;;;;;;5076923;28;20439;-71
2022/10/11 10:20:56;;;;;;;7.30;2.15;;;12.70;99.90;;;;;;5067718;28;20036;-72
2022/10/11 10:23:33;;;;;;;7.93;2.40;;;12.70;99.90;;;;;;5063530;28;20032;-77
2022/10/11 10:26:18;;;;;;;8.73;1.80;;;12.80;99.90;;;;;;5065512;28;20049;-72
2022/10/11 10:28:59;;;;;;;2.97;1.30;;;12.90;99.90;;;;;;5065316;28;20113;-72
2022/10/11 10:31:48;;;;;;;8.93;2.05;;;13.00;99.90;;;;;;5071543;28;20054;-75
2022/10/11 10:34:20;;;;;;;4.72;1.20;;;13.00;99.90;;;;;;5050059;28;20749;-73
2022/10/11 10:36:56;;;;;;;8.30;1.58;;;13.20;99.90;;;;;;5082688;28;20090;-71
2022/10/11 10:39:37;;;;;;;12.63;1.75;;;13.30;99.90;;;;;;5069020;28;20040;-76
2022/10/11 10:42:18;;;;;;;5.65;1.77;;;13.40;99.90;;;;;;5057513;28;20097;-73
2022/10/11 10:44:52;;;;;;;7.57;1.77;;;13.50;99.90;;;;;;5087261;28;20036;-71
2022/10/11 10:47:50;;;;;;;9.30;1.45;;;13.70;99.90;;;;;;5046350;28;20036;-72
2022/10/11 10:50:52;;;;;;;19.08;2.00;;;13.90;99.90;;;;;;5086189;28;20325;-70
2022/10/11 10:53:43;;;;;;;9.05;1.67;;;14.10;99.90;;;;;;5082437;28;20048;-67
2022/10/11 10:56:24;;;;;;;10.60;2.65;;;14.30;99.90;;;;;;5061259;28;20055;-65
2022/10/11 10:59:01;;;;;;;9.52;2.35;;;14.40;99.90;;;;;;5069881;28;20036;-64
2022/10/11 11:01:32;;;;;;;10.43;1.70;;;14.50;99.90;;;;;;5051014;28;20477;-69
2022/10/11 11:04:26;;;;;;;8.05;1.50;;;14.70;99.90;;;;;;5087326;28;20119;-65
2022/10/11 11:07:03;;;;;;;11.23;1.73;;;14.80;99.90;;;;;;5079971;28;20076;-70
2022/10/11 11:09:54;;;;;;;8.35;1.70;;;15.10;99.90;;;;;;5085457;28;20046;-68
2022/10/11 11:12:44;;;;;;;10.65;1.50;;;15.40;99.90;;;;;;5089468;28;20075;-66
2022/10/11 11:15:47;;;;;;;7.30;1.27;;;15.90;99.90;;;;;;5066849;28;20036;-65
2022/10/11 11:18:24;;;;;;;11.82;2.30;;;16.40;99.90;;;;;;5005093;28;20045;-68
2022/10/11 11:21:06;;;;;;;17.90;2.50;;;16.80;99.90;;;;;;5069463;28;20129;-64
2022/10/11 11:23:39;;;;;;;6.35;1.40;;;17.20;99.90;;;;;;5068757;28;20377;-66
2022/10/11 11:26:23;;;;;;;4.63;1.30;;;17.50;99.90;;;;;;5071129;28;20044;-66
2022/10/11 11:29:27;;;;;;;13.55;2.13;;;17.70;99.90;;;;;;5069665;28;20033;-63
2022/10/11 11:32:12;;;;;;;8.15;1.70;;;18.00;99.90;;;;;;5069091;28;20044;-63
2022/10/11 11:34:46;;;;;;;8.98;1.90;;;18.50;99.90;;;;;;5068758;28;20094;-65
2022/10/11 11:37:30;;;;;;;3.95;1.15;;;18.90;99.90;;;;;;5065127;28;20432;-64
2022/10/11 11:40:25;;;;;;;7.80;1.50;;;19.30;99.90;;;;;;5053571;28;20056;-63
2022/10/11 11:42:58;;;;;;;10.32;1.65;;;19.70;99.90;;;;;;5057138;28;20390;-63
2022/10/11 11:45:28;;;;;;;7.88;1.63;;;20.20;99.90;;;;;;5069321;28;20428;-64
2022/10/11 11:48:03;;;;;;;5.50;1.30;;;20.80;99.90;;;;;;5068238;28;20136;-67
2022/10/11 11:50:42;;;;;;;12.75;1.90;;;21.50;99.90;;;;;;5069253;28;20530;-69
2022/10/11 11:53:50;;;;;;;5.95;1.80;;;21.90;99.90;;;;;;5072416;28;20458;-65
2022/10/11 11:56:59;;;;;;;9.00;1.70;;;21.80;99.90;;;;;;5044275;28;20484;-73
2022/10/11 11:59:39;;;;;;;11.80;1.95;;;21.50;87.10;;;;;;5066013;28;20447;-72
2022/10/11 12:02:31;;;;;;;7.93;1.48;;;21.60;99.90;;;;;;5050907;28;20045;-70
2022/10/11 12:04:59;;;;;;;7.72;1.35;;;21.80;82.80;;;;;;5073047;28;20055;-69
2022/10/11 12:07:26;;;;;;;7.30;1.45;;;21.90;99.90;;;;;;5072913;28;20041;-75
2022/10/11 12:10:13;;;;;;;6.80;1.52;;;22.20;99.90;;;;;;5063774;28;20044;-75
2022/10/11 12:12:40;;;;;;;9.27;1.45;;;22.50;99.90;;;;;;5072558;28;20048;-71
2022/10/11 12:15:08;;;;;;;6.65;1.50;;;22.80;99.90;;;;;;5058744;28;20116;-73
2022/10/11 12:17:54;;;;;;;9.13;2.63;;;23.10;91.80;;;;;;5050715;28;20056;-75
2022/10/11 12:20:36;;;;;;;6.40;1.40;;;23.30;66.60;;;;;;5052405;28;20044;-70
2022/10/11 12:23:17;;;;;;;6.47;1.33;;;22.90;77.40;;;;;;5052859;28;20272;-72
2022/10/11 12:25:44;;;;;;;8.95;2.17;;;21.90;68.70;;;;;;5058639;28;20052;-73
2022/10/11 12:28:41;;;;;;;7.20;1.30;;;21.10;83.00;;;;;;5073121;28;20048;-70
2022/10/11 12:31:22;;;;;;;5.35;1.30;;;20.30;68.70;;;;;;5071975;28;20099;-70
2022/10/11 12:34:03;;;;;;;6.80;1.45;;;19.50;76.80;;;;;;5071714;28;20037;-70
2022/10/11 12:36:40;;;;;;;5.22;1.13;;;19.90;81.40;;;;;;5072971;28;20052;-71
2022/10/11 12:39:18;;;;;;;8.55;1.35;;;20.90;73.80;;;;;;5072057;28;20037;-70
2022/10/11 12:42:05;;;;;;;6.10;1.35;;;21.80;69.50;;;;;;5072329;28;20084;-70
2022/10/11 12:44:31;;;;;;;6.00;1.50;;;22.70;66.10;;;;;;5063038;28;20048;-75
2022/10/11 12:47:01;;;;;;;8.02;1.50;;;23.40;76.70;;;;;;5051323;28;20052;-70
2022/10/11 12:49:31;;;;;;;7.20;1.45;;;23.90;75.10;;;;;;5059631;28;20098;-70
2022/10/11 12:52:16;;;;;;;4.07;1.55;;;24.40;73.50;;;;;;5072286;28;20109;-70
2022/10/11 12:55:01;;;;;;;5.57;1.48;;;24.90;69.80;;;;;;5054307;28;20040;-78
2022/10/11 12:57:48;;;;;;;4.75;1.23;;;25.50;57.50;;;;;;5067643;28;20036;-74
2022/10/11 13:00:25;;;;;;;5.53;1.70;;;26.00;58.60;;;;;;5068417;28;20032;-74
2022/10/11 13:02:51;;;;;;;4.82;1.20;;;26.30;64.00;;;;;;5068830;28;20117;-76
2022/10/11 13:05:28;;;;;;;8.05;1.50;;;26.70;66.80;;;;;;5068690;28;20124;-77
2022/10/11 13:07:57;;;;;;;6.70;1.73;;;27.00;62.20;;;;;;5067420;28;20044;-77
2022/10/11 13:10:46;;;;;;;8.30;1.30;;;26.70;63.70;;;;;;5070371;28;20114;-75
2022/10/11 13:13:25;;;;;;;5.88;1.00;;;26.50;55.20;;;;;;5056002;28;20075;-73
2022/10/11 13:15:53;;;;;;;6.13;1.30;;;26.30;61.70;;;;;;5053814;28;20354;-74